sensor_id;sensor_type;location;lat;lon;timestamp;temperature;humidity
17813;DHT22;9030;50.792;8.320;2022-09-23T00:02:29;4.20;99.90
17813;DHT22;9030;50.792;8.320;2022-09-23T00:05:10;4.20;99.90
17813;DHT22;9030;50.792;8.320;2022-09-23T00:07:39;4.20;99.90
17813;DHT22;9030;50.792;8.320;2022-09-23T00:10:07;4.10;99.90
17813;DHT22;9030;50.792;8.320;2022-09-23T00:12:33;4.20;99.90
17813;DHT22;9030;50.792;8.320;2022-09-23T00:15:00;4.10;99.90
17813;DHT22;9030;50.792;8.320;2022-09-23T00:17:30;4.10;99.90
17813;DHT22;9030;50.792;8.320;2022-09-23T00:19:57;3.90;99.90
17813;DHT22;9030;50.792;8.320;2022-09-23T00:22:26;3.90;99.90
17813;DHT22;9030;50.792;8.320;2022-09-23T00:24:53;3.90;99.90
17813;DHT22;9030;50.792;8.320;2022-09-23T00:27:22;4.80;99.90
17813;DHT22;9030;50.792;8.320;2022-09-23T00:29:50;4.10;99.90
17813;DHT22;9030;50.792;8.320;2022-09-23T00:32:17;4.10;99.90
17813;DHT22;9030;50.792;8.320;2022-09-23T00:34:44;3.90;99.90
17813;DHT22;9030;50.792;8.320;2022-09-23T00:37:14;3.80;99.90
17813;DHT22;9030;50.792;8.320;2022-09-23T00:39:43;3.80;99.90
17813;DHT22;9030;50.792;8.320;2022-09-23T00:42:14;3.80;99.90
17813;DHT22;9030;50.792;8.320;2022-09-23T00:44:47;3.70;99.90
17813;DHT22;9030;50.792;8.320;2022-09-23T00:47:19;3.70;99.90
17813;DHT22;9030;50.792;8.320;2022-09-23T00:49:50;3.60;99.90
17813;DHT22;9030;50.792;8.320;2022-09-23T00:52:20;3.70;99.90
17813;DHT22;9030;50.792;8.320;2022-09-23T00:54:51;3.80;99.90
17813;DHT22;9030;50.792;8.320;2022-09-23T00:57:19;3.60;99.90
17813;DHT22;9030;50.792;8.320;2022-09-23T00:59:47;3.70;99.90
17813;DHT22;9030;50.792;8.320;2022-09-23T01:02:15;3.60;99.90
17813;DHT22;9030;50.792;8.320;2022-09-23T01:04:47;3.60;99.90
17813;DHT22;9030;50.792;8.320;2022-09-23T01:07:15;3.50;99.90
17813;DHT22;9030;50.792;8.320;2022-09-23T01:09:42;3.40;99.90
17813;DHT22;9030;50.792;8.320;2022-09-23T01:12:24;3.50;99.90
17813;DHT22;9030;50.792;8.320;2022-09-23T01:14:58;3.60;99.90
17813;DHT22;9030;50.792;8.320;2022-09-23T01:17:33;3.60;99.90
17813;DHT22;9030;50.792;8.320;2022-09-23T01:20:45;3.50;99.90
17813;DHT22;9030;50.792;8.320;2022-09-23T01:23:42;3.40;99.90
17813;DHT22;9030;50.792;8.320;2022-09-23T01:26:35;3.40;99.90
17813;DHT22;9030;50.792;8.320;2022-09-23T01:29:22;3.40;99.90
17813;DHT22;9030;50.792;8.320;2022-09-23T01:31:59;3.60;99.90
17813;DHT22;9030;50.792;8.320;2022-09-23T01:34:34;3.50;99.90
17813;DHT22;9030;50.792;8.320;2022-09-23T01:37:06;3.50;99.90
17813;DHT22;9030;50.792;8.320;2022-09-23T01:39:37;3.40;99.90
17813;DHT22;9030;50.792;8.320;2022-09-23T01:42:11;3.40;99.90
17813;DHT22;9030;50.792;8.320;2022-09-23T01:44:45;3.30;99.90
17813;DHT22;9030;50.792;8.320;2022-09-23T01:47:16;3.80;99.90
17813;DHT22;9030;50.792;8.320;2022-09-23T01:49:49;3.30;99.90
17813;DHT22;9030;50.792;8.320;2022-09-23T01:52:19;3.40;99.90
17813;DHT22;9030;50.792;8.320;2022-09-23T01:54:54;3.50;99.90
17813;DHT22;9030;50.792;8.320;2022-09-23T01:57:24;3.40;99.90
17813;DHT22;9030;50.792;8.320;2022-09-23T01:59:58;3.40;99.90
17813;DHT22;9030;50.792;8.320;2022-09-23T02:02:34;3.40;99.90
17813;DHT22;9030;50.792;8.320;2022-09-23T02:05:04;3.40;99.90
17813;DHT22;9030;50.792;8.320;2022-09-23T02:07:37;3.70;99.90
17813;DHT22;9030;50.792;8.320;2022-09-23T02:10:10;3.30;99.90
17813;DHT22;9030;50.792;8.320;2022-09-23T02:12:39;3.20;99.90
17813;DHT22;9030;50.792;8.320;2022-09-23T02:15:13;3.10;99.90
17813;DHT22;9030;50.792;8.320;2022-09-23T02:17:46;3.20;99.90
17813;DHT22;9030;50.792;8.320;2022-09-23T02:20:18;3.10;99.90
17813;DHT22;9030;50.792;8.320;2022-09-23T02:22:52;3.20;99.90
17813;DHT22;9030;50.792;8.320;2022-09-23T02:25:26;3.00;99.90
17813;DHT22;9030;50.792;8.320;2022-09-23T02:28:00;3.10;99.90
17813;DHT22;9030;50.792;8.320;2022-09-23T02:30:39;3.20;99.90
17813;DHT22;9030;50.792;8.320;2022-09-23T02:33:17;3.10;99.90
17813;DHT22;9030;50.792;8.320;2022-09-23T02:35:49;3.00;99.90
17813;DHT22;9030;50.792;8.320;2022-09-23T02:38:26;3.00;99.90
17813;DHT22;9030;50.792;8.320;2022-09-23T02:40:58;3.00;99.90
17813;DHT22;9030;50.792;8.320;2022-09-23T02:43:36;3.00;99.90
17813;DHT22;9030;50.792;8.320;2022-09-23T02:46:08;3.10;99.90
17813;DHT22;9030;50.792;8.320;2022-09-23T02:48:40;3.00;99.90
17813;DHT22;9030;50.792;8.320;2022-09-23T02:51:09;3.10;99.90
17813;DHT22;9030;50.792;8.320;2022-09-23T02:53:36;3.10;99.90
17813;DHT22;9030;50.792;8.320;2022-09-23T02:56:13;3.20;99.90
17813;DHT22;9030;50.792;8.320;2022-09-23T02:58:40;3.20;99.90
17813;DHT22;9030;50.792;8.320;2022-09-23T03:01:12;3.10;99.90
17813;DHT22;9030;50.792;8.320;2022-09-23T03:03:53;3.10;99.90
17813;DHT22;9030;50.792;8.320;2022-09-23T03:06:28;3.10;99.90
17813;DHT22;9030;50.792;8.320;2022-09-23T03:09:01;3.00;99.90
17813;DHT22;9030;50.792;8.320;2022-09-23T03:11:28;3.10;99.90
17813;DHT22;9030;50.792;8.320;2022-09-23T03:14:04;3.10;99.90
17813;DHT22;9030;50.792;8.320;2022-09-23T03:16:46;3.00;99.90
17813;DHT22;9030;50.792;8.320;2022-09-23T03:19:23;3.00;99.90
17813;DHT22;9030;50.792;8.320;2022-09-23T03:21:57;2.90;99.90
17813;DHT22;9030;50.792;8.320;2022-09-23T03:24:27;2.90;99.90
17813;DHT22;9030;50.792;8.320;2022-09-23T03:26:57;2.90;99.90
17813;DHT22;9030;50.792;8.320;2022-09-23T03:29:26;2.90;99.90
17813;DHT22;9030;50.792;8.320;2022-09-23T03:31:54;2.90;99.90
17813;DHT22;9030;50.792;8.320;2022-09-23T03:34:26;3.00;99.90
17813;DHT22;9030;50.792;8.320;2022-09-23T03:36:57;3.10;99.90
17813;DHT22;9030;50.792;8.320;2022-09-23T03:39:32;3.20;99.90
17813;DHT22;9030;50.792;8.320;2022-09-23T03:42:03;3.00;99.90
17813;DHT22;9030;50.792;8.320;2022-09-23T03:44:34;2.90;99.90
17813;DHT22;9030;50.792;8.320;2022-09-23T03:47:03;2.90;99.90
17813;DHT22;9030;50.792;8.320;2022-09-23T03:49:35;3.00;99.90
17813;DHT22;9030;50.792;8.320;2022-09-23T03:52:03;3.10;99.90
17813;DHT22;9030;50.792;8.320;2022-09-23T03:54:30;3.70;99.90
17813;DHT22;9030;50.792;8.320;2022-09-23T03:56:59;3.10;99.90
17813;DHT22;9030;50.792;8.320;2022-09-23T03:59:27;3.10;99.90
17813;DHT22;9030;50.792;8.320;2022-09-23T04:01:55;3.10;99.90
17813;DHT22;9030;50.792;8.320;2022-09-23T04:04:24;3.10;99.90
17813;DHT22;9030;50.792;8.320;2022-09-23T04:06:56;3.20;99.90
17813;DHT22;9030;50.792;8.320;2022-09-23T04:09:26;3.20;99.90
17813;DHT22;9030;50.792;8.320;2022-09-23T04:11:53;3.30;99.90
17813;DHT22;9030;50.792;8.320;2022-09-23T04:14:21;3.20;99.90
17813;DHT22;9030;50.792;8.320;2022-09-23T04:16:56;3.20;99.90
17813;DHT22;9030;50.792;8.320;2022-09-23T04:19:23;3.20;99.90
17813;DHT22;9030;50.792;8.320;2022-09-23T04:22:04;3.20;99.90
17813;DHT22;9030;50.792;8.320;2022-09-23T04:24:31;3.30;99.90
17813;DHT22;9030;50.792;8.320;2022-09-23T04:26:58;3.10;99.90
17813;DHT22;9030;50.792;8.320;2022-09-23T04:29:26;3.10;99.90
17813;DHT22;9030;50.792;8.320;2022-09-23T04:31:55;3.20;99.90
17813;DHT22;9030;50.792;8.320;2022-09-23T04:34:22;3.20;99.90
17813;DHT22;9030;50.792;8.320;2022-09-23T04:36:49;3.20;99.90
17813;DHT22;9030;50.792;8.320;2022-09-23T04:39:17;3.10;99.90
17813;DHT22;9030;50.792;8.320;2022-09-23T04:41:45;3.10;99.90
17813;DHT22;9030;50.792;8.320;2022-09-23T04:44:12;3.10;99.90
17813;DHT22;9030;50.792;8.320;2022-09-23T04:46:43;3.00;99.90
17813;DHT22;9030;50.792;8.320;2022-09-23T04:49:14;3.00;99.90
17813;DHT22;9030;50.792;8.320;2022-09-23T04:51:43;3.00;99.90
17813;DHT22;9030;50.792;8.320;2022-09-23T04:54:13;3.40;99.90
17813;DHT22;9030;50.792;8.320;2022-09-23T04:56:42;3.20;99.90
17813;DHT22;9030;50.792;8.320;2022-09-23T04:59:14;3.20;99.90
17813;DHT22;9030;50.792;8.320;2022-09-23T05:01:43;3.50;99.90
17813;DHT22;9030;50.792;8.320;2022-09-23T05:04:12;3.00;99.90
17813;DHT22;9030;50.792;8.320;2022-09-23T05:06:39;3.10;99.90
17813;DHT22;9030;50.792;8.320;2022-09-23T05:09:14;3.20;99.90
17813;DHT22;9030;50.792;8.320;2022-09-23T05:11:45;3.10;99.90
17813;DHT22;9030;50.792;8.320;2022-09-23T05:14:12;3.10;99.90
17813;DHT22;9030;50.792;8.320;2022-09-23T05:16:42;3.10;99.90
17813;DHT22;9030;50.792;8.320;2022-09-23T05:19:11;3.10;99.90
17813;DHT22;9030;50.792;8.320;2022-09-23T05:21:52;2.90;99.90
17813;DHT22;9030;50.792;8.320;2022-09-23T05:24:24;2.90;99.90
17813;DHT22;9030;50.792;8.320;2022-09-23T05:26:53;3.60;99.90
17813;DHT22;9030;50.792;8.320;2022-09-23T05:29:26;3.10;99.90
17813;DHT22;9030;50.792;8.320;2022-09-23T05:31:58;2.70;99.90
17813;DHT22;9030;50.792;8.320;2022-09-23T05:34:30;3.10;99.90
17813;DHT22;9030;50.792;8.320;2022-09-23T05:37:04;3.60;99.90
17813;DHT22;9030;50.792;8.320;2022-09-23T05:39:40;3.10;99.90
17813;DHT22;9030;50.792;8.320;2022-09-23T05:42:08;3.10;99.90
17813;DHT22;9030;50.792;8.320;2022-09-23T05:44:37;3.10;99.90
17813;DHT22;9030;50.792;8.320;2022-09-23T05:47:15;3.00;99.90
17813;DHT22;9030;50.792;8.320;2022-09-23T05:49:42;3.00;99.90
17813;DHT22;9030;50.792;8.320;2022-09-23T05:52:12;3.10;99.90
17813;DHT22;9030;50.792;8.320;2022-09-23T05:54:41;3.10;99.90
17813;DHT22;9030;50.792;8.320;2022-09-23T05:57:13;3.20;99.90
17813;DHT22;9030;50.792;8.320;2022-09-23T05:59:40;3.20;99.90
17813;DHT22;9030;50.792;8.320;2022-09-23T06:02:12;3.30;99.90
17813;DHT22;9030;50.792;8.320;2022-09-23T06:04:44;3.30;99.90
17813;DHT22;9030;50.792;8.320;2022-09-23T06:07:15;3.30;99.90
17813;DHT22;9030;50.792;8.320;2022-09-23T06:09:48;3.50;99.90
17813;DHT22;9030;50.792;8.320;2022-09-23T06:12:18;3.60;99.90
17813;DHT22;9030;50.792;8.320;2022-09-23T06:14:48;3.50;99.90
17813;DHT22;9030;50.792;8.320;2022-09-23T06:17:17;3.60;99.90
17813;DHT22;9030;50.792;8.320;2022-09-23T06:19:46;3.50;99.90
17813;DHT22;9030;50.792;8.320;2022-09-23T06:22:16;3.60;99.90
17813;DHT22;9030;50.792;8.320;2022-09-23T06:24:44;4.10;99.90
17813;DHT22;9030;50.792;8.320;2022-09-23T06:27:24;3.70;99.90
17813;DHT22;9030;50.792;8.320;2022-09-23T06:29:54;4.00;99.90
17813;DHT22;9030;50.792;8.320;2022-09-23T06:32:24;4.10;99.90
17813;DHT22;9030;50.792;8.320;2022-09-23T06:34:56;4.50;99.90
17813;DHT22;9030;50.792;8.320;2022-09-23T06:37:31;4.20;99.90
17813;DHT22;9030;50.792;8.320;2022-09-23T06:40:05;4.40;99.90
17813;DHT22;9030;50.792;8.320;2022-09-23T06:42:36;4.50;99.90
17813;DHT22;9030;50.792;8.320;2022-09-23T06:45:07;4.60;99.90
17813;DHT22;9030;50.792;8.320;2022-09-23T06:47:44;4.70;99.90
17813;DHT22;9030;50.792;8.320;2022-09-23T06:50:14;4.80;99.90
17813;DHT22;9030;50.792;8.320;2022-09-23T06:52:52;4.80;99.90
17813;DHT22;9030;50.792;8.320;2022-09-23T06:55:27;5.00;99.90
17813;DHT22;9030;50.792;8.320;2022-09-23T06:57:56;5.00;99.90
17813;DHT22;9030;50.792;8.320;2022-09-23T07:00:24;5.10;99.90
17813;DHT22;9030;50.792;8.320;2022-09-23T07:02:51;5.20;99.90
17813;DHT22;9030;50.792;8.320;2022-09-23T07:05:19;5.40;99.90
17813;DHT22;9030;50.792;8.320;2022-09-23T07:07:47;5.60;99.90
17813;DHT22;9030;50.792;8.320;2022-09-23T07:10:14;5.70;99.90
17813;DHT22;9030;50.792;8.320;2022-09-23T07:12:40;6.10;99.90
17813;DHT22;9030;50.792;8.320;2022-09-23T07:15:09;6.50;99.90
17813;DHT22;9030;50.792;8.320;2022-09-23T07:17:36;6.90;99.90
17813;DHT22;9030;50.792;8.320;2022-09-23T07:20:07;7.10;99.90
17813;DHT22;9030;50.792;8.320;2022-09-23T07:22:34;7.20;99.90
17813;DHT22;9030;50.792;8.320;2022-09-23T07:25:03;7.60;99.90
17813;DHT22;9030;50.792;8.320;2022-09-23T07:27:30;7.70;99.90
17813;DHT22;9030;50.792;8.320;2022-09-23T07:30:05;8.10;99.90
17813;DHT22;9030;50.792;8.320;2022-09-23T07:32:34;8.60;99.90
17813;DHT22;9030;50.792;8.320;2022-09-23T07:35:08;8.10;99.90
17813;DHT22;9030;50.792;8.320;2022-09-23T07:37:40;8.40;99.90
17813;DHT22;9030;50.792;8.320;2022-09-23T07:40:12;8.40;99.90
17813;DHT22;9030;50.792;8.320;2022-09-23T07:42:47;8.80;99.90
17813;DHT22;9030;50.792;8.320;2022-09-23T07:45:23;9.30;99.90
17813;DHT22;9030;50.792;8.320;2022-09-23T07:48:02;9.30;99.90
17813;DHT22;9030;50.792;8.320;2022-09-23T07:50:30;9.20;99.90
17813;DHT22;9030;50.792;8.320;2022-09-23T07:53:00;10.10;99.90
17813;DHT22;9030;50.792;8.320;2022-09-23T07:55:31;9.60;99.90
17813;DHT22;9030;50.792;8.320;2022-09-23T07:57:59;9.60;99.90
17813;DHT22;9030;50.792;8.320;2022-09-23T08:00:29;10.10;99.90
17813;DHT22;9030;50.792;8.320;2022-09-23T08:02:57;10.50;99.90
17813;DHT22;9030;50.792;8.320;2022-09-23T08:05:28;11.10;99.90
17813;DHT22;9030;50.792;8.320;2022-09-23T08:07:57;10.70;99.90
17813;DHT22;9030;50.792;8.320;2022-09-23T08:10:24;11.10;99.90
17813;DHT22;9030;50.792;8.320;2022-09-23T08:12:51;11.20;99.90
17813;DHT22;9030;50.792;8.320;2022-09-23T08:15:17;11.20;99.90
17813;DHT22;9030;50.792;8.320;2022-09-23T08:17:46;11.40;99.90
17813;DHT22;9030;50.792;8.320;2022-09-23T08:20:13;11.60;99.90
17813;DHT22;9030;50.792;8.320;2022-09-23T08:23:02;12.00;99.90
17813;DHT22;9030;50.792;8.320;2022-09-23T08:25:36;12.80;99.90
17813;DHT22;9030;50.792;8.320;2022-09-23T08:28:05;12.10;99.90
17813;DHT22;9030;50.792;8.320;2022-09-23T08:30:31;12.00;99.90
17813;DHT22;9030;50.792;8.320;2022-09-23T08:33:01;12.60;99.90
17813;DHT22;9030;50.792;8.320;2022-09-23T08:35:30;12.30;99.90
17813;DHT22;9030;50.792;8.320;2022-09-23T08:37:57;12.40;99.90
17813;DHT22;9030;50.792;8.320;2022-09-23T08:40:32;12.50;99.90
17813;DHT22;9030;50.792;8.320;2022-09-23T08:43:04;13.10;99.90
17813;DHT22;9030;50.792;8.320;2022-09-23T08:45:36;12.70;99.90
17813;DHT22;9030;50.792;8.320;2022-09-23T08:48:12;12.60;99.90
17813;DHT22;9030;50.792;8.320;2022-09-23T08:50:45;12.90;99.90
17813;DHT22;9030;50.792;8.320;2022-09-23T08:53:22;13.30;99.90
17813;DHT22;9030;50.792;8.320;2022-09-23T08:56:03;13.50;99.90
17813;DHT22;9030;50.792;8.320;2022-09-23T08:58:45;13.20;99.90
17813;DHT22;9030;50.792;8.320;2022-09-23T09:01:20;13.60;99.90
17813;DHT22;9030;50.792;8.320;2022-09-23T09:03:50;13.80;99.90
17813;DHT22;9030;50.792;8.320;2022-09-23T09:06:22;13.70;99.90
17813;DHT22;9030;50.792;8.320;2022-09-23T09:08:59;13.90;99.90
17813;DHT22;9030;50.792;8.320;2022-09-23T09:11:35;14.20;99.90
17813;DHT22;9030;50.792;8.320;2022-09-23T09:14:13;14.20;99.90
17813;DHT22;9030;50.792;8.320;2022-09-23T09:16:50;14.50;99.90
17813;DHT22;9030;50.792;8.320;2022-09-23T09:19:20;14.80;99.90
17813;DHT22;9030;50.792;8.320;2022-09-23T09:21:52;14.90;99.90
17813;DHT22;9030;50.792;8.320;2022-09-23T09:24:27;15.00;99.90
17813;DHT22;9030;50.792;8.320;2022-09-23T09:26:58;15.20;99.90
17813;DHT22;9030;50.792;8.320;2022-09-23T09:29:28;15.60;99.90
17813;DHT22;9030;50.792;8.320;2022-09-23T09:31:58;15.70;99.90
17813;DHT22;9030;50.792;8.320;2022-09-23T09:34:29;15.30;99.90
17813;DHT22;9030;50.792;8.320;2022-09-23T09:37:02;15.30;99.90
17813;DHT22;9030;50.792;8.320;2022-09-23T09:39:31;15.80;99.90
17813;DHT22;9030;50.792;8.320;2022-09-23T09:41:59;16.30;99.90
17813;DHT22;9030;50.792;8.320;2022-09-23T09:44:37;16.50;99.90
17813;DHT22;9030;50.792;8.320;2022-09-23T09:47:27;16.60;99.90
17813;DHT22;9030;50.792;8.320;2022-09-23T09:50:04;16.80;99.90
17813;DHT22;9030;50.792;8.320;2022-09-23T09:52:34;17.00;99.90
17813;DHT22;9030;50.792;8.320;2022-09-23T09:55:23;17.60;99.90
17813;DHT22;9030;50.792;8.320;2022-09-23T09:57:54;18.30;99.90
17813;DHT22;9030;50.792;8.320;2022-09-23T10:00:39;18.50;99.90
17813;DHT22;9030;50.792;8.320;2022-09-23T10:03:23;17.60;99.90
17813;DHT22;9030;50.792;8.320;2022-09-23T10:05:51;18.40;99.90
17813;DHT22;9030;50.792;8.320;2022-09-23T10:08:26;18.10;99.90
17813;DHT22;9030;50.792;8.320;2022-09-23T10:11:04;18.00;99.90
17813;DHT22;9030;50.792;8.320;2022-09-23T10:13:38;18.20;99.90
17813;DHT22;9030;50.792;8.320;2022-09-23T10:16:16;18.30;99.90
17813;DHT22;9030;50.792;8.320;2022-09-23T10:18:53;17.60;99.90
17813;DHT22;9030;50.792;8.320;2022-09-23T10:21:38;17.40;99.90
17813;DHT22;9030;50.792;8.320;2022-09-23T10:24:07;17.20;99.90
17813;DHT22;9030;50.792;8.320;2022-09-23T10:26:52;17.50;99.90
17813;DHT22;9030;50.792;8.320;2022-09-23T10:29:32;18.10;99.90
17813;DHT22;9030;50.792;8.320;2022-09-23T10:32:22;18.40;99.90
17813;DHT22;9030;50.792;8.320;2022-09-23T10:34:54;18.40;99.90
17813;DHT22;9030;50.792;8.320;2022-09-23T10:37:35;18.40;99.90
17813;DHT22;9030;50.792;8.320;2022-09-23T10:40:26;17.60;99.90
17813;DHT22;9030;50.792;8.320;2022-09-23T10:43:26;18.00;99.90
17813;DHT22;9030;50.792;8.320;2022-09-23T10:46:17;17.90;99.90
17813;DHT22;9030;50.792;8.320;2022-09-23T10:49:13;18.10;99.90
17813;DHT22;9030;50.792;8.320;2022-09-23T10:51:47;17.50;99.90
17813;DHT22;9030;50.792;8.320;2022-09-23T10:54:22;17.20;99.90
17813;DHT22;9030;50.792;8.320;2022-09-23T10:56:59;17.00;99.90
17813;DHT22;9030;50.792;8.320;2022-09-23T10:59:54;17.40;99.90
17813;DHT22;9030;50.792;8.320;2022-09-23T11:02:39;17.40;99.90
17813;DHT22;9030;50.792;8.320;2022-09-23T11:05:28;17.40;99.90
17813;DHT22;9030;50.792;8.320;2022-09-23T11:08:13;18.20;99.90
17813;DHT22;9030;50.792;8.320;2022-09-23T11:13:54;18.90;99.90
17813;DHT22;9030;50.792;8.320;2022-09-23T11:16:29;19.50;99.90
17813;DHT22;9030;50.792;8.320;2022-09-23T11:19:18;19.00;99.90
17813;DHT22;9030;50.792;8.320;2022-09-23T11:22:06;19.10;99.90
17813;DHT22;9030;50.792;8.320;2022-09-23T11:24:51;18.60;99.90
17813;DHT22;9030;50.792;8.320;2022-09-23T11:27:30;18.30;99.90
17813;DHT22;9030;50.792;8.320;2022-09-23T11:30:06;18.50;99.90
17813;DHT22;9030;50.792;8.320;2022-09-23T11:35:42;18.20;99.90
17813;DHT22;9030;50.792;8.320;2022-09-23T11:38:18;18.60;99.90
17813;DHT22;9030;50.792;8.320;2022-09-23T11:40:51;18.60;99.90
17813;DHT22;9030;50.792;8.320;2022-09-23T11:43:22;18.10;99.90
17813;DHT22;9030;50.792;8.320;2022-09-23T11:45:56;18.30;99.90
17813;DHT22;9030;50.792;8.320;2022-09-23T11:48:28;18.30;99.90
17813;DHT22;9030;50.792;8.320;2022-09-23T11:50:59;18.40;99.90
17813;DHT22;9030;50.792;8.320;2022-09-23T11:53:35;18.90;99.90
17813;DHT22;9030;50.792;8.320;2022-09-23T11:56:08;18.30;99.90
17813;DHT22;9030;50.792;8.320;2022-09-23T11:58:40;18.60;99.90
17813;DHT22;9030;50.792;8.320;2022-09-23T12:01:12;18.80;99.90
17813;DHT22;9030;50.792;8.320;2022-09-23T12:03:49;18.00;99.90
17813;DHT22;9030;50.792;8.320;2022-09-23T12:06:21;18.40;99.90
17813;DHT22;9030;50.792;8.320;2022-09-23T12:08:52;18.80;99.90
17813;DHT22;9030;50.792;8.320;2022-09-23T12:11:26;19.50;99.90
17813;DHT22;9030;50.792;8.320;2022-09-23T12:14:06;19.90;99.90
17813;DHT22;9030;50.792;8.320;2022-09-23T12:19:55;19.80;99.90
17813;DHT22;9030;50.792;8.320;2022-09-23T12:22:38;19.80;99.90
17813;DHT22;9030;50.792;8.320;2022-09-23T12:25:20;19.80;99.90
17813;DHT22;9030;50.792;8.320;2022-09-23T12:27:53;19.70;99.90
17813;DHT22;9030;50.792;8.320;2022-09-23T12:30:23;19.80;99.90
17813;DHT22;9030;50.792;8.320;2022-09-23T12:32:51;19.70;99.90
17813;DHT22;9030;50.792;8.320;2022-09-23T12:35:23;19.20;99.90
17813;DHT22;9030;50.792;8.320;2022-09-23T12:37:52;18.80;99.90
17813;DHT22;9030;50.792;8.320;2022-09-23T12:40:22;18.30;99.90
17813;DHT22;9030;50.792;8.320;2022-09-23T12:42:53;18.40;99.90
17813;DHT22;9030;50.792;8.320;2022-09-23T12:45:34;18.30;99.90
17813;DHT22;9030;50.792;8.320;2022-09-23T12:48:04;18.50;99.90
17813;DHT22;9030;50.792;8.320;2022-09-23T12:50:52;18.70;99.90
17813;DHT22;9030;50.792;8.320;2022-09-23T12:53:56;18.60;99.90
17813;DHT22;9030;50.792;8.320;2022-09-23T12:56:26;18.60;99.90
17813;DHT22;9030;50.792;8.320;2022-09-23T12:59:10;18.60;99.90
17813;DHT22;9030;50.792;8.320;2022-09-23T13:01:38;18.40;99.90
17813;DHT22;9030;50.792;8.320;2022-09-23T13:04:30;18.80;99.90
17813;DHT22;9030;50.792;8.320;2022-09-23T13:07:16;18.30;99.90
17813;DHT22;9030;50.792;8.320;2022-09-23T13:09:48;18.60;99.90
17813;DHT22;9030;50.792;8.320;2022-09-23T13:12:19;18.40;99.90
17813;DHT22;9030;50.792;8.320;2022-09-23T13:14:51;17.80;99.90
17813;DHT22;9030;50.792;8.320;2022-09-23T13:17:28;18.10;99.90
17813;DHT22;9030;50.792;8.320;2022-09-23T13:19:58;18.40;99.90
17813;DHT22;9030;50.792;8.320;2022-09-23T13:23:03;18.80;99.90
17813;DHT22;9030;50.792;8.320;2022-09-23T13:25:38;18.00;99.90
17813;DHT22;9030;50.792;8.320;2022-09-23T13:28:17;18.00;99.90
17813;DHT22;9030;50.792;8.320;2022-09-23T13:30:47;18.40;99.90
17813;DHT22;9030;50.792;8.320;2022-09-23T13:33:28;18.90;99.90
17813;DHT22;9030;50.792;8.320;2022-09-23T13:35:59;18.50;99.90
17813;DHT22;9030;50.792;8.320;2022-09-23T13:38:29;19.10;99.90
17813;DHT22;9030;50.792;8.320;2022-09-23T13:41:00;18.70;99.90
17813;DHT22;9030;50.792;8.320;2022-09-23T13:43:31;18.60;99.90
17813;DHT22;9030;50.792;8.320;2022-09-23T13:46:00;18.80;99.90
17813;DHT22;9030;50.792;8.320;2022-09-23T13:48:30;18.80;99.90
17813;DHT22;9030;50.792;8.320;2022-09-23T13:51:08;18.60;99.90
17813;DHT22;9030;50.792;8.320;2022-09-23T13:53:36;18.30;99.90
17813;DHT22;9030;50.792;8.320;2022-09-23T13:56:06;18.50;99.90
17813;DHT22;9030;50.792;8.320;2022-09-23T13:58:37;18.30;99.90
17813;DHT22;9030;50.792;8.320;2022-09-23T14:01:07;18.20;99.90
17813;DHT22;9030;50.792;8.320;2022-09-23T14:03:36;18.20;99.90
17813;DHT22;9030;50.792;8.320;2022-09-23T14:06:06;18.40;99.90
17813;DHT22;9030;50.792;8.320;2022-09-23T14:08:35;18.20;99.90
17813;DHT22;9030;50.792;8.320;2022-09-23T14:11:05;18.10;99.90
17813;DHT22;9030;50.792;8.320;2022-09-23T14:13:39;17.90;99.90
17813;DHT22;9030;50.792;8.320;2022-09-23T14:16:09;17.90;99.90
17813;DHT22;9030;50.792;8.320;2022-09-23T14:18:44;18.80;99.90
17813;DHT22;9030;50.792;8.320;2022-09-23T14:21:26;18.30;99.90
17813;DHT22;9030;50.792;8.320;2022-09-23T14:23:53;18.30;99.90
17813;DHT22;9030;50.792;8.320;2022-09-23T14:26:22;18.40;99.90
17813;DHT22;9030;50.792;8.320;2022-09-23T14:28:49;18.10;99.90
17813;DHT22;9030;50.792;8.320;2022-09-23T14:31:17;18.30;99.90
17813;DHT22;9030;50.792;8.320;2022-09-23T14:33:44;18.00;99.90
17813;DHT22;9030;50.792;8.320;2022-09-23T14:36:13;17.90;99.90
17813;DHT22;9030;50.792;8.320;2022-09-23T14:39:00;17.80;99.90
17813;DHT22;9030;50.792;8.320;2022-09-23T14:41:34;17.50;99.90
17813;DHT22;9030;50.792;8.320;2022-09-23T14:44:03;17.80;99.90
17813;DHT22;9030;50.792;8.320;2022-09-23T14:46:31;17.90;99.90
17813;DHT22;9030;50.792;8.320;2022-09-23T14:49:03;17.90;99.90
17813;DHT22;9030;50.792;8.320;2022-09-23T14:51:34;17.90;99.90
17813;DHT22;9030;50.792;8.320;2022-09-23T14:54:33;17.90;99.90
17813;DHT22;9030;50.792;8.320;2022-09-23T14:57:17;17.70;99.90
17813;DHT22;9030;50.792;8.320;2022-09-23T14:59:52;17.80;99.90
17813;DHT22;9030;50.792;8.320;2022-09-23T15:02:31;17.60;99.90
17813;DHT22;9030;50.792;8.320;2022-09-23T15:05:13;18.00;99.90
17813;DHT22;9030;50.792;8.320;2022-09-23T15:07:42;17.60;99.90
17813;DHT22;9030;50.792;8.320;2022-09-23T15:10:16;17.60;99.90
17813;DHT22;9030;50.792;8.320;2022-09-23T15:12:46;17.60;99.90
17813;DHT22;9030;50.792;8.320;2022-09-23T15:15:16;17.60;99.90
17813;DHT22;9030;50.792;8.320;2022-09-23T15:17:43;17.60;99.90
17813;DHT22;9030;50.792;8.320;2022-09-23T15:20:17;17.50;99.90
17813;DHT22;9030;50.792;8.320;2022-09-23T15:22:47;17.50;99.90
17813;DHT22;9030;50.792;8.320;2022-09-23T15:25:17;17.50;99.90
17813;DHT22;9030;50.792;8.320;2022-09-23T15:27:57;17.40;99.90
17813;DHT22;9030;50.792;8.320;2022-09-23T15:30:24;17.20;99.90
17813;DHT22;9030;50.792;8.320;2022-09-23T15:32:51;17.10;99.90
17813;DHT22;9030;50.792;8.320;2022-09-23T15:35:20;17.10;99.90
17813;DHT22;9030;50.792;8.320;2022-09-23T15:37:50;16.80;99.90
17813;DHT22;9030;50.792;8.320;2022-09-23T15:40:21;16.80;99.90
17813;DHT22;9030;50.792;8.320;2022-09-23T15:42:49;16.90;99.90
17813;DHT22;9030;50.792;8.320;2022-09-23T15:45:19;16.80;99.90
17813;DHT22;9030;50.792;8.320;2022-09-23T15:47:47;16.80;99.90
17813;DHT22;9030;50.792;8.320;2022-09-23T15:50:15;16.70;99.90
17813;DHT22;9030;50.792;8.320;2022-09-23T15:52:44;16.80;99.90
17813;DHT22;9030;50.792;8.320;2022-09-23T15:55:17;17.00;99.90
17813;DHT22;9030;50.792;8.320;2022-09-23T15:57:57;16.50;99.90
17813;DHT22;9030;50.792;8.320;2022-09-23T16:00:45;16.60;99.90
17813;DHT22;9030;50.792;8.320;2022-09-23T16:03:22;17.10;99.90
17813;DHT22;9030;50.792;8.320;2022-09-23T16:05:54;16.30;99.90
17813;DHT22;9030;50.792;8.320;2022-09-23T16:08:22;16.30;99.90
17813;DHT22;9030;50.792;8.320;2022-09-23T16:10:50;16.40;99.90
17813;DHT22;9030;50.792;8.320;2022-09-23T16:13:20;16.60;99.90
17813;DHT22;9030;50.792;8.320;2022-09-23T16:15:49;15.80;99.90
17813;DHT22;9030;50.792;8.320;2022-09-23T16:18:16;15.50;99.90
17813;DHT22;9030;50.792;8.320;2022-09-23T16:20:43;15.30;99.90
17813;DHT22;9030;50.792;8.320;2022-09-23T16:23:20;15.00;99.90
17813;DHT22;9030;50.792;8.320;2022-09-23T16:25:59;15.10;99.90
17813;DHT22;9030;50.792;8.320;2022-09-23T16:28:26;15.60;99.90
17813;DHT22;9030;50.792;8.320;2022-09-23T16:30:54;15.20;99.90
17813;DHT22;9030;50.792;8.320;2022-09-23T16:33:21;15.30;99.90
17813;DHT22;9030;50.792;8.320;2022-09-23T16:35:51;16.00;99.90
17813;DHT22;9030;50.792;8.320;2022-09-23T16:38:18;15.20;99.90
17813;DHT22;9030;50.792;8.320;2022-09-23T16:40:45;15.00;99.90
17813;DHT22;9030;50.792;8.320;2022-09-23T16:43:12;14.70;99.90